Aviation Digital Data Service (ADDS)

Output produced by METARs form (0727 UTC 21 February 2017)
found at http://www.aviationweather.gov/adds/metars/
 
KGED 210654Z AUTO 05008KT 10SM CLR 04/M02 A3034 RMK AO2 SLP273 T00391017 $